createdAt,value
2022-10-28T00:02:36.297Z,4.40
2022-10-28T00:05:39.492Z,3.03
2022-10-28T00:08:42.855Z,7.13
2022-10-28T00:11:45.789Z,2.83
2022-10-28T00:14:48.658Z,3.37
2022-10-28T00:17:53.713Z,6.33
2022-10-28T00:21:01.470Z,4.70
2022-10-28T00:24:04.698Z,4.00
2022-10-28T00:27:07.593Z,2.27
2022-10-28T00:30:11.403Z,2.20
2022-10-28T00:33:15.694Z,2.70
2022-10-28T00:36:21.014Z,4.70
2022-10-28T00:39:26.307Z,2.50
2022-10-28T00:42:29.222Z,6.57
2022-10-28T00:45:32.225Z,5.10
2022-10-28T00:48:41.237Z,5.13
2022-10-28T00:51:45.385Z,2.43
2022-10-28T00:54:48.604Z,2.87
2022-10-28T00:57:56.572Z,2.50
2022-10-28T01:00:59.508Z,2.17
2022-10-28T01:04:04.365Z,3.40
2022-10-28T01:07:07.494Z,2.40
2022-10-28T01:10:11.670Z,4.33
2022-10-28T01:13:24.633Z,3.80
2022-10-28T01:16:35.325Z,4.70
2022-10-28T01:20:26.224Z,3.57
2022-10-28T01:23:36.266Z,3.07
2022-10-28T01:27:17.542Z,5.83
2022-10-28T01:30:22.562Z,3.90
2022-10-28T01:33:31.110Z,1.97
2022-10-28T01:36:40.488Z,2.97
2022-10-28T01:39:48.185Z,2.67
2022-10-28T01:42:56.760Z,2.87
2022-10-28T01:46:02.749Z,5.20
2022-10-28T01:49:13.421Z,2.60
2022-10-28T01:52:22.268Z,2.63
2022-10-28T01:55:30.062Z,2.50
2022-10-28T01:58:34.631Z,2.23
2022-10-28T02:01:38.289Z,3.30
2022-10-28T02:04:42.996Z,3.07
2022-10-28T02:07:46.646Z,1.77
2022-10-28T02:11:01.077Z,3.23
2022-10-28T02:14:16.609Z,3.30
2022-10-28T02:17:27.300Z,2.43
2022-10-28T02:20:40.425Z,2.37
2022-10-28T02:23:46.925Z,3.80
2022-10-28T02:26:57.063Z,2.27
2022-10-28T02:30:04.920Z,2.47
2022-10-28T02:33:13.832Z,4.40
2022-10-28T02:36:21.516Z,2.43
2022-10-28T02:39:27.676Z,4.03
2022-10-28T02:42:33.784Z,3.87
2022-10-28T02:45:40.684Z,2.53
2022-10-28T02:48:46.579Z,3.00
2022-10-28T02:51:55.321Z,2.43
2022-10-28T02:55:00.064Z,2.87
2022-10-28T02:58:03.198Z,2.97
2022-10-28T03:01:06.233Z,2.93
2022-10-28T03:04:09.430Z,2.57
2022-10-28T03:07:13.660Z,3.77
2022-10-28T03:10:17.261Z,1.80
2022-10-28T03:13:20.169Z,5.53
2022-10-28T03:16:23.410Z,1.87
2022-10-28T03:19:26.318Z,2.33
2022-10-28T03:22:30.616Z,5.63
2022-10-28T03:25:33.540Z,5.40
2022-10-28T03:28:36.822Z,2.30
2022-10-28T03:31:39.944Z,3.30
2022-10-28T03:34:42.857Z,2.27
2022-10-28T03:37:47.237Z,4.97
2022-10-28T03:40:50.469Z,2.37
2022-10-28T03:43:53.356Z,2.33
2022-10-28T03:46:56.258Z,2.67
2022-10-28T03:49:59.414Z,4.03
2022-10-28T03:53:03.753Z,2.73
2022-10-28T03:56:07.038Z,3.33
2022-10-28T03:59:10.606Z,4.70
2022-10-28T04:02:15.614Z,4.30
2022-10-28T04:05:19.048Z,2.63
2022-10-28T04:08:23.469Z,2.70
2022-10-28T04:11:26.352Z,2.00
2022-10-28T04:14:29.250Z,2.83
2022-10-28T04:17:32.463Z,5.13
2022-10-28T04:20:35.432Z,2.23
2022-10-28T04:23:39.729Z,1.93
2022-10-28T04:26:42.596Z,4.30
2022-10-28T04:29:45.469Z,1.80
2022-10-28T04:32:48.701Z,3.23
2022-10-28T04:35:51.586Z,3.23
2022-10-28T04:38:55.809Z,3.20
2022-10-28T04:41:58.681Z,3.20
2022-10-28T04:45:01.798Z,3.40
2022-10-28T04:48:04.959Z,3.23
2022-10-28T04:51:08.038Z,2.63
2022-10-28T04:54:12.514Z,4.17
2022-10-28T04:57:15.413Z,1.77
2022-10-28T05:00:18.655Z,1.90
2022-10-28T05:03:21.551Z,3.43
2022-10-28T05:06:24.416Z,2.50
2022-10-28T05:09:30.004Z,2.37
2022-10-28T05:12:32.898Z,2.30
2022-10-28T05:15:35.787Z,3.50
2022-10-28T05:18:38.750Z,2.23
2022-10-28T05:21:41.664Z,4.70
2022-10-28T05:24:45.885Z,4.53
2022-10-28T05:27:48.858Z,1.50
2022-10-28T05:30:51.724Z,2.67
2022-10-28T05:33:54.594Z,2.10
2022-10-28T05:36:57.694Z,3.70
2022-10-28T05:40:01.944Z,2.73
2022-10-28T05:43:05.426Z,3.27
2022-10-28T05:46:08.349Z,5.93
2022-10-28T05:49:11.241Z,2.93
2022-10-28T05:52:14.234Z,6.90
2022-10-28T05:55:19.925Z,2.10
2022-10-28T05:58:22.807Z,5.37
2022-10-28T06:01:25.748Z,4.60
2022-10-28T06:04:28.673Z,4.73
2022-10-28T06:07:31.834Z,4.70
2022-10-28T06:10:36.291Z,5.53
2022-10-28T06:13:37.789Z,9.47
2022-10-28T06:16:40.649Z,5.70
2022-10-28T06:19:43.528Z,5.23
2022-10-28T06:22:49.975Z,5.20
2022-10-28T06:25:58.420Z,5.50
2022-10-28T06:29:01.453Z,3.87
2022-10-28T06:32:05.517Z,6.97
2022-10-28T06:35:08.677Z,3.93
2022-10-28T06:38:11.890Z,3.77
2022-10-28T06:41:16.198Z,3.37
2022-10-28T06:44:19.067Z,7.33
2022-10-28T06:47:23.681Z,4.20
2022-10-28T06:50:27.007Z,5.47
2022-10-28T06:53:29.953Z,5.73
2022-10-28T06:56:34.211Z,3.87
2022-10-28T06:59:37.185Z,4.83
2022-10-28T07:02:42.837Z,5.10
2022-10-28T07:05:49.204Z,5.63
2022-10-28T07:08:53.058Z,3.93
2022-10-28T07:12:00.866Z,4.73
2022-10-28T07:15:09.019Z,5.93
2022-10-28T07:18:11.924Z,8.67
2022-10-28T07:21:14.815Z,11.00
2022-10-28T07:24:17.873Z,9.90
2022-10-28T07:27:22.218Z,6.00
2022-10-28T07:30:25.358Z,8.57
2022-10-28T07:33:28.232Z,8.60
2022-10-28T07:36:31.200Z,6.57
2022-10-28T07:39:34.176Z,6.50
2022-10-28T07:42:38.715Z,4.07
2022-10-28T07:45:41.711Z,8.13
2022-10-28T07:48:44.630Z,5.80
2022-10-28T07:51:47.816Z,2.93
2022-10-28T07:54:52.203Z,4.60
2022-10-28T07:57:56.732Z,4.73
2022-10-28T08:01:03.474Z,4.63
2022-10-28T08:04:06.709Z,3.40
2022-10-28T08:07:09.750Z,4.43
2022-10-28T08:10:12.634Z,4.70
2022-10-28T08:13:16.858Z,3.00
2022-10-28T08:16:20.355Z,4.83
2022-10-28T08:19:23.252Z,4.00
2022-10-28T08:22:26.217Z,3.43
2022-10-28T08:25:29.088Z,4.10
2022-10-28T08:28:33.334Z,2.50
2022-10-28T08:31:36.270Z,4.07
2022-10-28T08:34:42.486Z,4.60
2022-10-28T08:37:52.543Z,2.83
2022-10-28T08:41:03.297Z,4.57
2022-10-28T08:44:41.140Z,3.47
2022-10-28T08:47:54.520Z,5.67
2022-10-28T08:51:02.502Z,3.40
2022-10-28T08:54:13.336Z,8.63
2022-10-28T08:57:21.717Z,5.20
2022-10-28T09:00:29.013Z,3.70
2022-10-28T09:03:39.026Z,5.90
2022-10-28T09:06:42.306Z,2.47
2022-10-28T09:09:45.982Z,3.77
2022-10-28T09:12:57.054Z,3.37
2022-10-28T09:16:08.538Z,4.57
2022-10-28T09:19:20.360Z,2.77
2022-10-28T09:22:26.052Z,7.73
2022-10-28T09:25:37.870Z,4.03
2022-10-28T09:28:56.229Z,6.83
2022-10-28T09:32:13.510Z,5.70
2022-10-28T09:35:21.411Z,5.30
2022-10-28T09:38:29.071Z,3.90
2022-10-28T09:41:35.329Z,5.03
2022-10-28T09:44:45.199Z,3.20
2022-10-28T09:47:56.986Z,3.87
2022-10-28T09:51:00.825Z,6.17
2022-10-28T09:54:03.750Z,3.73
2022-10-28T09:57:06.992Z,3.70
2022-10-28T10:00:14.225Z,3.13
2022-10-28T10:03:18.748Z,7.13
2022-10-28T10:06:26.977Z,3.58
2022-10-28T10:09:32.841Z,2.13
2022-10-28T10:12:36.046Z,2.95
2022-10-28T10:15:43.789Z,2.35
2022-10-28T10:18:52.116Z,5.18
2022-10-28T10:21:55.882Z,1.02
2022-10-28T10:24:59.097Z,3.60
2022-10-28T10:28:05.808Z,3.05
2022-10-28T10:31:17.574Z,2.88
2022-10-28T10:34:26.214Z,3.20
2022-10-28T10:37:30.605Z,1.05
2022-10-28T10:40:35.638Z,3.38
2022-10-28T10:43:39.946Z,1.13
2022-10-28T10:46:42.982Z,2.10
2022-10-28T10:49:47.228Z,1.55
2022-10-28T10:52:53.128Z,0.90
2022-10-28T10:56:00.560Z,6.30
2022-10-28T10:59:06.903Z,2.55
2022-10-28T11:02:23.656Z,1.75
2022-10-28T11:05:32.147Z,0.73
2022-10-28T11:08:41.120Z,1.23
2022-10-28T11:11:44.141Z,4.28
2022-10-28T11:14:57.507Z,2.58
2022-10-28T11:18:05.045Z,0.88
2022-10-28T11:21:18.388Z,1.60
2022-10-28T11:24:40.427Z,1.35
2022-10-28T11:27:57.538Z,1.05
2022-10-28T11:31:23.689Z,1.98
2022-10-28T11:34:59.515Z,4.05
2022-10-28T11:38:16.184Z,0.98
2022-10-28T11:41:29.884Z,0.75
2022-10-28T11:44:45.184Z,1.10
2022-10-28T11:48:05.091Z,1.27
2022-10-28T11:51:24.768Z,0.90
2022-10-28T11:54:44.981Z,1.20
2022-10-28T11:57:59.847Z,1.92
2022-10-28T12:01:24.586Z,1.10
2022-10-28T12:04:44.956Z,2.05
2022-10-28T12:08:03.991Z,2.97
2022-10-28T12:11:21.422Z,2.35
2022-10-28T12:14:34.328Z,1.75
2022-10-28T12:17:42.365Z,1.17
2022-10-28T12:20:52.957Z,0.40
2022-10-28T12:23:58.568Z,2.47
2022-10-28T12:27:08.092Z,1.50
2022-10-28T12:30:21.279Z,0.85
2022-10-28T12:33:27.898Z,1.55
2022-10-28T12:36:36.825Z,3.05
2022-10-28T12:39:44.543Z,0.60
2022-10-28T12:42:54.757Z,1.15
2022-10-28T12:45:58.524Z,1.83
2022-10-28T12:49:10.583Z,3.05
2022-10-28T12:52:23.154Z,2.22
2022-10-28T12:55:34.416Z,1.60
2022-10-28T12:58:47.903Z,1.05
2022-10-28T13:01:51.766Z,1.85
2022-10-28T13:04:54.936Z,2.58
2022-10-28T13:08:25.023Z,3.20
2022-10-28T13:11:53.544Z,3.45
2022-10-28T13:15:36.598Z,4.13
2022-10-28T13:19:08.649Z,1.20
2022-10-28T13:22:33.436Z,3.03
2022-10-28T13:25:55.335Z,1.42
2022-10-28T13:29:00.049Z,1.63
2022-10-28T13:32:04.669Z,1.30
2022-10-28T13:35:16.957Z,1.50
2022-10-28T13:38:24.475Z,1.80
2022-10-28T13:41:41.016Z,1.45
2022-10-28T13:44:50.817Z,1.02
2022-10-28T13:48:29.941Z,6.72
2022-10-28T13:51:34.462Z,1.52
2022-10-28T13:54:58.860Z,2.17
2022-10-28T13:58:05.073Z,1.58
2022-10-28T14:01:41.657Z,8.52
2022-10-28T14:04:56.192Z,11.10
2022-10-28T14:08:02.275Z,7.25
2022-10-28T14:11:07.126Z,3.95
2022-10-28T14:14:17.764Z,4.72
2022-10-28T14:17:23.025Z,4.35
2022-10-28T14:20:31.591Z,4.75
2022-10-28T14:24:09.124Z,4.43
2022-10-28T14:27:27.614Z,2.55
2022-10-28T14:30:30.544Z,1.75
2022-10-28T14:33:33.592Z,4.45
2022-10-28T14:36:49.070Z,2.50
2022-10-28T14:40:02.955Z,3.33
2022-10-28T14:43:30.545Z,3.42
2022-10-28T14:46:50.381Z,4.85
2022-10-28T14:50:01.962Z,2.45
2022-10-28T14:53:08.644Z,3.95
2022-10-28T14:56:17.861Z,3.30
2022-10-28T14:59:26.700Z,1.77
2022-10-28T15:02:30.808Z,2.13
2022-10-28T15:05:34.822Z,2.35
2022-10-28T15:08:39.141Z,7.60
2022-10-28T15:11:45.656Z,6.57
2022-10-28T15:14:52.103Z,2.40
2022-10-28T15:17:55.498Z,1.95
2022-10-28T15:21:11.858Z,2.72
2022-10-28T15:24:16.107Z,2.63
2022-10-28T15:27:19.457Z,3.20
2022-10-28T15:30:25.303Z,4.40
2022-10-28T15:33:31.708Z,3.83
2022-10-28T15:36:34.786Z,4.80
2022-10-28T15:39:40.333Z,5.47
2022-10-28T15:42:50.337Z,2.65
2022-10-28T15:45:53.608Z,5.00
2022-10-28T15:48:58.957Z,3.30
2022-10-28T15:52:32.702Z,6.18
2022-10-28T15:59:09.203Z,6.30
2022-10-28T16:02:42.809Z,4.72
2022-10-28T16:05:47.322Z,16.13
2022-10-28T16:09:05.570Z,6.75
2022-10-28T16:12:15.585Z,6.13
2022-10-28T16:15:18.781Z,9.93
2022-10-28T16:18:22.467Z,5.38
2022-10-28T16:21:27.087Z,13.98
2022-10-28T16:24:30.034Z,17.75
2022-10-28T16:27:34.340Z,13.80
2022-10-28T16:30:37.253Z,12.45
2022-10-28T16:33:40.237Z,11.52
2022-10-28T16:36:43.126Z,6.72
2022-10-28T16:39:46.026Z,5.85
2022-10-28T16:42:50.299Z,4.53
2022-10-28T16:45:54.697Z,10.27
2022-10-28T16:48:57.563Z,9.52
2022-10-28T16:52:02.950Z,9.07
2022-10-28T16:55:14.011Z,13.88
2022-10-28T16:58:21.882Z,14.93
2022-10-28T17:01:27.673Z,15.98
2022-10-28T17:04:30.921Z,13.98
2022-10-28T17:07:33.847Z,9.13
2022-10-28T17:10:36.897Z,9.27
2022-10-28T17:13:41.308Z,11.98
2022-10-28T17:16:44.211Z,13.07
2022-10-28T17:19:47.140Z,10.85
2022-10-28T17:22:50.064Z,8.13
2022-10-28T17:25:57.370Z,7.55
2022-10-28T17:29:01.630Z,8.60
2022-10-28T17:32:04.903Z,8.70
2022-10-28T17:35:08.351Z,7.47
2022-10-28T17:38:11.220Z,10.43
2022-10-28T17:41:14.111Z,9.13
2022-10-28T17:44:18.363Z,10.40
2022-10-28T17:47:21.295Z,5.57
2022-10-28T17:50:24.198Z,8.38
2022-10-28T17:53:27.344Z,8.23
2022-10-28T17:56:30.466Z,7.38
2022-10-28T17:59:34.712Z,8.10
2022-10-28T18:02:39.617Z,4.82
2022-10-28T18:05:42.598Z,5.50
2022-10-28T18:08:45.908Z,14.75
2022-10-28T18:11:48.892Z,6.32
2022-10-28T18:14:53.106Z,8.00
2022-10-28T18:17:56.012Z,7.38
2022-10-28T18:20:59.278Z,7.18
2022-10-28T18:24:04.464Z,7.35
2022-10-28T18:27:07.495Z,6.25
2022-10-28T18:30:12.509Z,7.50
2022-10-28T18:33:15.424Z,11.80
2022-10-28T18:36:20.358Z,6.63
2022-10-28T18:39:23.262Z,6.70
2022-10-28T18:42:26.153Z,9.43
2022-10-28T18:45:30.477Z,9.48
2022-10-28T18:48:33.380Z,11.07
2022-10-28T18:51:36.539Z,8.02
2022-10-28T18:54:39.393Z,7.50
2022-10-28T18:57:42.347Z,8.00
2022-10-28T19:00:46.581Z,6.73
2022-10-28T19:03:52.800Z,7.67
2022-10-28T19:06:55.744Z,9.20
2022-10-28T19:09:58.712Z,8.17
2022-10-28T19:13:01.644Z,8.57
2022-10-28T19:16:06.853Z,8.05
2022-10-28T19:19:09.790Z,9.97
2022-10-28T19:22:12.823Z,7.67
2022-10-28T19:25:15.820Z,10.33
2022-10-28T19:28:18.681Z,9.03
2022-10-28T19:31:25.160Z,11.15
2022-10-28T19:34:28.344Z,9.95
2022-10-28T19:37:31.276Z,6.57
2022-10-28T19:40:34.214Z,9.82
2022-10-28T19:43:37.737Z,7.65
2022-10-28T19:46:41.984Z,6.43
2022-10-28T19:49:45.106Z,8.17
2022-10-28T19:52:48.341Z,5.83
2022-10-28T19:55:55.651Z,13.67
2022-10-28T19:59:00.378Z,7.87
2022-10-28T20:02:04.779Z,14.33
2022-10-28T20:05:08.308Z,8.73
2022-10-28T20:08:11.191Z,8.83
2022-10-28T20:11:18.933Z,10.97
2022-10-28T20:14:24.546Z,8.80
2022-10-28T20:17:28.855Z,8.00
2022-10-28T20:20:32.019Z,7.07
2022-10-28T20:23:35.846Z,8.27
2022-10-28T20:26:39.679Z,9.97
2022-10-28T20:29:42.587Z,10.40
2022-10-28T20:32:48.060Z,10.67
2022-10-28T20:35:52.747Z,9.60
2022-10-28T20:38:56.224Z,12.33
2022-10-28T20:41:59.129Z,9.20
2022-10-28T20:45:02.021Z,7.67
2022-10-28T20:48:07.154Z,8.87
2022-10-28T20:51:10.675Z,8.13
2022-10-28T20:54:13.567Z,8.70
2022-10-28T20:57:16.519Z,8.83
2022-10-28T21:00:19.653Z,9.57
2022-10-28T21:03:23.907Z,7.87
2022-10-28T21:06:27.859Z,12.00
2022-10-28T21:09:30.992Z,8.70
2022-10-28T21:12:33.907Z,9.60
2022-10-28T21:15:38.344Z,8.53
2022-10-28T21:18:42.812Z,6.97
2022-10-28T21:21:45.712Z,7.10
2022-10-28T21:24:48.562Z,12.20
2022-10-28T21:27:51.502Z,10.47
2022-10-28T21:30:59.923Z,9.53
2022-10-28T21:34:07.382Z,8.10
2022-10-28T21:37:11.377Z,10.53
2022-10-28T21:40:15.212Z,7.97
2022-10-28T21:43:18.106Z,8.23
2022-10-28T21:46:22.367Z,7.13
2022-10-28T21:49:26.596Z,9.47
2022-10-28T21:52:29.806Z,7.93
2022-10-28T21:55:46.153Z,6.97
2022-10-28T21:58:51.482Z,7.47
2022-10-28T22:01:54.631Z,7.20
2022-10-28T22:04:58.926Z,6.70
2022-10-28T22:08:04.460Z,11.47
2022-10-28T22:11:12.701Z,6.13
2022-10-28T22:14:16.148Z,8.50
2022-10-28T22:17:19.041Z,7.20
2022-10-28T22:20:23.455Z,5.67
2022-10-28T22:23:26.339Z,8.47
2022-10-28T22:26:31.208Z,7.27
2022-10-28T22:29:34.092Z,8.63
2022-10-28T22:32:37.020Z,7.33
2022-10-28T22:35:41.263Z,7.03
2022-10-28T22:38:44.467Z,5.60
2022-10-28T22:41:47.334Z,6.23
2022-10-28T22:44:50.224Z,7.13
2022-10-28T22:47:53.391Z,7.33
2022-10-28T22:50:58.439Z,12.70
2022-10-28T22:54:01.349Z,6.23
2022-10-28T22:57:04.364Z,5.63
2022-10-28T23:00:08.684Z,6.07
2022-10-28T23:03:12.051Z,5.50
2022-10-28T23:06:18.387Z,6.73
2022-10-28T23:09:21.375Z,5.20
2022-10-28T23:12:24.356Z,10.20
2022-10-28T23:15:28.036Z,5.20
2022-10-28T23:18:30.940Z,5.37
2022-10-28T23:21:35.183Z,5.27
2022-10-28T23:24:38.065Z,5.50
2022-10-28T23:27:41.611Z,6.30
2022-10-28T23:30:44.516Z,5.97
2022-10-28T23:33:47.712Z,7.10
2022-10-28T23:36:54.334Z,4.43
2022-10-28T23:39:57.287Z,6.87
2022-10-28T23:43:00.252Z,7.50
2022-10-28T23:46:03.128Z,6.20
2022-10-28T23:49:06.046Z,5.70
2022-10-28T23:52:10.295Z,5.37
2022-10-28T23:55:13.182Z,5.27
2022-10-28T23:58:17.973Z,7.50
